sensor_id;sensor_type;location;lat;lon;timestamp;P1;durP1;ratioP1;P2;durP2;ratioP2
69943;SDS011;57257;48.408;-4.498;2023-04-24T00:01:21;1.50;;;1.50;;
69943;SDS011;57257;48.408;-4.498;2023-04-24T00:03:46;3.25;;;2.00;;
69943;SDS011;57257;48.408;-4.498;2023-04-24T00:06:11;3.75;;;0.00;;
69943;SDS011;57257;48.408;-4.498;2023-04-24T00:08:37;3.00;;;3.00;;
69943;SDS011;57257;48.408;-4.498;2023-04-24T00:11:03;4.00;;;4.00;;
69943;SDS011;57257;48.408;-4.498;2023-04-24T00:13:28;6.00;;;5.00;;
69943;SDS011;57257;48.408;-4.498;2023-04-24T00:15:54;3.00;;;1.50;;
69943;SDS011;57257;48.408;-4.498;2023-04-24T00:18:20;3.75;;;2.00;;
69943;SDS011;57257;48.408;-4.498;2023-04-24T00:20:46;1.50;;;1.50;;
69943;SDS011;57257;48.408;-4.498;2023-04-24T00:23:12;3.00;;;3.00;;
69943;SDS011;57257;48.408;-4.498;2023-04-24T00:25:38;6.00;;;3.25;;
69943;SDS011;57257;48.408;-4.498;2023-04-24T00:28:03;5.00;;;3.00;;
69943;SDS011;57257;48.408;-4.498;2023-04-24T00:30:29;4.00;;;4.00;;
69943;SDS011;57257;48.408;-4.498;2023-04-24T00:32:54;1.50;;;1.00;;
69943;SDS011;57257;48.408;-4.498;2023-04-24T00:35:20;9.25;;;3.50;;
69943;SDS011;57257;48.408;-4.498;2023-04-24T00:37:45;3.50;;;2.00;;
69943;SDS011;57257;48.408;-4.498;2023-04-24T00:40:11;4.25;;;4.25;;
69943;SDS011;57257;48.408;-4.498;2023-04-24T00:42:37;0.75;;;0.75;;
69943;SDS011;57257;48.408;-4.498;2023-04-24T00:45:02;5.00;;;4.00;;
69943;SDS011;57257;48.408;-4.498;2023-04-24T00:47:29;6.00;;;3.75;;
69943;SDS011;57257;48.408;-4.498;2023-04-24T00:49:56;8.75;;;5.25;;
69943;SDS011;57257;48.408;-4.498;2023-04-24T00:52:21;2.25;;;2.25;;
69943;SDS011;57257;48.408;-4.498;2023-04-24T00:54:49;3.00;;;3.00;;
69943;SDS011;57257;48.408;-4.498;2023-04-24T00:57:15;5.00;;;5.00;;
69943;SDS011;57257;48.408;-4.498;2023-04-24T00:59:41;3.25;;;3.25;;
69943;SDS011;57257;48.408;-4.498;2023-04-24T01:02:07;9.25;;;6.00;;
69943;SDS011;57257;48.408;-4.498;2023-04-24T01:04:35;5.00;;;5.00;;
69943;SDS011;57257;48.408;-4.498;2023-04-24T01:07:01;4.25;;;3.00;;
69943;SDS011;57257;48.408;-4.498;2023-04-24T01:09:26;3.00;;;3.00;;
69943;SDS011;57257;48.408;-4.498;2023-04-24T01:11:52;6.75;;;3.25;;
69943;SDS011;57257;48.408;-4.498;2023-04-24T01:14:18;5.00;;;4.50;;
69943;SDS011;57257;48.408;-4.498;2023-04-24T01:16:43;5.00;;;4.00;;
69943;SDS011;57257;48.408;-4.498;2023-04-24T01:19:09;4.50;;;3.75;;
69943;SDS011;57257;48.408;-4.498;2023-04-24T01:21:36;3.00;;;3.00;;
69943;SDS011;57257;48.408;-4.498;2023-04-24T01:24:05;7.00;;;6.25;;
69943;SDS011;57257;48.408;-4.498;2023-04-24T01:26:31;5.50;;;5.50;;
69943;SDS011;57257;48.408;-4.498;2023-04-24T01:28:57;6.50;;;5.00;;
69943;SDS011;57257;48.408;-4.498;2023-04-24T01:31:22;4.75;;;4.75;;
69943;SDS011;57257;48.408;-4.498;2023-04-24T01:33:49;3.75;;;3.75;;
69943;SDS011;57257;48.408;-4.498;2023-04-24T01:36:15;7.00;;;6.50;;
69943;SDS011;57257;48.408;-4.498;2023-04-24T01:38:42;8.00;;;4.50;;
69943;SDS011;57257;48.408;-4.498;2023-04-24T01:41:07;7.75;;;7.75;;
69943;SDS011;57257;48.408;-4.498;2023-04-24T01:43:33;4.25;;;4.25;;
69943;SDS011;57257;48.408;-4.498;2023-04-24T01:45:58;4.00;;;4.00;;
69943;SDS011;57257;48.408;-4.498;2023-04-24T01:48:24;6.25;;;6.25;;
69943;SDS011;57257;48.408;-4.498;2023-04-24T01:50:49;7.00;;;4.25;;
69943;SDS011;57257;48.408;-4.498;2023-04-24T01:53:15;4.00;;;3.75;;
69943;SDS011;57257;48.408;-4.498;2023-04-24T01:55:40;5.25;;;5.25;;
69943;SDS011;57257;48.408;-4.498;2023-04-24T01:58:06;2.00;;;2.00;;
69943;SDS011;57257;48.408;-4.498;2023-04-24T02:00:31;5.75;;;2.00;;
69943;SDS011;57257;48.408;-4.498;2023-04-24T02:02:57;6.00;;;3.50;;
69943;SDS011;57257;48.408;-4.498;2023-04-24T02:05:22;6.50;;;4.25;;
69943;SDS011;57257;48.408;-4.498;2023-04-24T02:07:48;5.75;;;3.75;;
69943;SDS011;57257;48.408;-4.498;2023-04-24T02:10:13;4.00;;;3.75;;
69943;SDS011;57257;48.408;-4.498;2023-04-24T02:12:39;5.50;;;5.50;;
69943;SDS011;57257;48.408;-4.498;2023-04-24T02:15:04;5.00;;;5.00;;
69943;SDS011;57257;48.408;-4.498;2023-04-24T02:17:30;6.00;;;5.00;;
69943;SDS011;57257;48.408;-4.498;2023-04-24T02:19:56;1.50;;;1.00;;
69943;SDS011;57257;48.408;-4.498;2023-04-24T02:22:21;4.75;;;1.00;;
69943;SDS011;57257;48.408;-4.498;2023-04-24T02:24:47;4.00;;;3.75;;
69943;SDS011;57257;48.408;-4.498;2023-04-24T02:27:12;9.00;;;6.25;;
69943;SDS011;57257;48.408;-4.498;2023-04-24T02:29:38;3.75;;;3.75;;
69943;SDS011;57257;48.408;-4.498;2023-04-24T02:32:03;12.00;;;5.00;;
69943;SDS011;57257;48.408;-4.498;2023-04-24T02:34:28;8.00;;;5.50;;
69943;SDS011;57257;48.408;-4.498;2023-04-24T02:36:54;5.00;;;4.25;;
69943;SDS011;57257;48.408;-4.498;2023-04-24T02:39:20;4.25;;;2.00;;
69943;SDS011;57257;48.408;-4.498;2023-04-24T02:41:45;3.50;;;3.50;;
69943;SDS011;57257;48.408;-4.498;2023-04-24T02:44:11;8.75;;;4.00;;
69943;SDS011;57257;48.408;-4.498;2023-04-24T02:46:36;4.75;;;4.00;;
69943;SDS011;57257;48.408;-4.498;2023-04-24T02:49:01;3.25;;;3.25;;
69943;SDS011;57257;48.408;-4.498;2023-04-24T02:51:27;11.25;;;6.25;;
69943;SDS011;57257;48.408;-4.498;2023-04-24T02:53:53;9.00;;;7.00;;
69943;SDS011;57257;48.408;-4.498;2023-04-24T02:56:18;3.50;;;3.50;;
69943;SDS011;57257;48.408;-4.498;2023-04-24T02:58:44;6.75;;;3.75;;
69943;SDS011;57257;48.408;-4.498;2023-04-24T03:01:10;4.25;;;3.50;;
69943;SDS011;57257;48.408;-4.498;2023-04-24T03:03:36;5.00;;;4.00;;
69943;SDS011;57257;48.408;-4.498;2023-04-24T03:06:02;6.25;;;4.50;;
69943;SDS011;57257;48.408;-4.498;2023-04-24T03:08:27;8.75;;;8.25;;
69943;SDS011;57257;48.408;-4.498;2023-04-24T03:10:53;6.00;;;3.50;;
69943;SDS011;57257;48.408;-4.498;2023-04-24T03:13:18;8.00;;;7.75;;
69943;SDS011;57257;48.408;-4.498;2023-04-24T03:15:44;7.50;;;5.50;;
69943;SDS011;57257;48.408;-4.498;2023-04-24T03:18:11;6.50;;;6.50;;
69943;SDS011;57257;48.408;-4.498;2023-04-24T03:20:36;7.50;;;3.50;;
69943;SDS011;57257;48.408;-4.498;2023-04-24T03:23:02;4.50;;;4.50;;
69943;SDS011;57257;48.408;-4.498;2023-04-24T03:25:28;9.25;;;7.25;;
69943;SDS011;57257;48.408;-4.498;2023-04-24T03:27:53;7.00;;;7.00;;
69943;SDS011;57257;48.408;-4.498;2023-04-24T03:30:19;3.75;;;3.75;;
69943;SDS011;57257;48.408;-4.498;2023-04-24T03:32:45;3.75;;;3.75;;
69943;SDS011;57257;48.408;-4.498;2023-04-24T03:35:10;4.50;;;4.50;;
69943;SDS011;57257;48.408;-4.498;2023-04-24T03:37:36;3.50;;;3.00;;
69943;SDS011;57257;48.408;-4.498;2023-04-24T03:40:02;3.00;;;3.00;;
69943;SDS011;57257;48.408;-4.498;2023-04-24T03:42:27;6.00;;;3.25;;
69943;SDS011;57257;48.408;-4.498;2023-04-24T03:44:53;2.00;;;2.00;;
69943;SDS011;57257;48.408;-4.498;2023-04-24T03:47:18;7.00;;;6.50;;
69943;SDS011;57257;48.408;-4.498;2023-04-24T03:49:44;3.25;;;3.00;;
69943;SDS011;57257;48.408;-4.498;2023-04-24T03:52:09;5.00;;;5.00;;
69943;SDS011;57257;48.408;-4.498;2023-04-24T03:54:35;5.00;;;3.50;;
69943;SDS011;57257;48.408;-4.498;2023-04-24T03:57:00;3.50;;;1.50;;
69943;SDS011;57257;48.408;-4.498;2023-04-24T03:59:26;1.00;;;1.00;;
69943;SDS011;57257;48.408;-4.498;2023-04-24T04:01:51;2.50;;;2.50;;
69943;SDS011;57257;48.408;-4.498;2023-04-24T04:04:17;4.00;;;3.00;;
69943;SDS011;57257;48.408;-4.498;2023-04-24T04:06:42;4.00;;;1.50;;
69943;SDS011;57257;48.408;-4.498;2023-04-24T04:09:09;1.00;;;1.00;;
69943;SDS011;57257;48.408;-4.498;2023-04-24T04:11:35;3.75;;;1.50;;
69943;SDS011;57257;48.408;-4.498;2023-04-24T04:14:00;3.00;;;3.00;;
69943;SDS011;57257;48.408;-4.498;2023-04-24T04:16:26;3.00;;;1.00;;
69943;SDS011;57257;48.408;-4.498;2023-04-24T04:18:51;1.00;;;1.00;;
69943;SDS011;57257;48.408;-4.498;2023-04-24T04:21:17;3.00;;;3.00;;
69943;SDS011;57257;48.408;-4.498;2023-04-24T04:23:42;1.00;;;1.00;;
69943;SDS011;57257;48.408;-4.498;2023-04-24T04:26:07;2.00;;;2.00;;
69943;SDS011;57257;48.408;-4.498;2023-04-24T04:28:33;2.50;;;2.50;;
69943;SDS011;57257;48.408;-4.498;2023-04-24T04:30:59;6.75;;;3.00;;
69943;SDS011;57257;48.408;-4.498;2023-04-24T04:33:25;5.25;;;5.25;;
69943;SDS011;57257;48.408;-4.498;2023-04-24T04:35:51;7.50;;;3.00;;
69943;SDS011;57257;48.408;-4.498;2023-04-24T04:38:18;3.75;;;3.25;;
69943;SDS011;57257;48.408;-4.498;2023-04-24T04:40:44;7.25;;;5.00;;
69943;SDS011;57257;48.408;-4.498;2023-04-24T04:43:11;2.00;;;2.00;;
69943;SDS011;57257;48.408;-4.498;2023-04-24T04:45:38;9.25;;;5.00;;
69943;SDS011;57257;48.408;-4.498;2023-04-24T04:48:04;1.50;;;1.50;;
69943;SDS011;57257;48.408;-4.498;2023-04-24T04:50:32;6.00;;;6.00;;
69943;SDS011;57257;48.408;-4.498;2023-04-24T04:52:57;5.25;;;3.75;;
69943;SDS011;57257;48.408;-4.498;2023-04-24T04:55:23;4.00;;;4.00;;
69943;SDS011;57257;48.408;-4.498;2023-04-24T04:57:48;4.00;;;4.00;;
69943;SDS011;57257;48.408;-4.498;2023-04-24T05:00:14;5.00;;;4.00;;
69943;SDS011;57257;48.408;-4.498;2023-04-24T05:02:40;2.00;;;2.00;;
69943;SDS011;57257;48.408;-4.498;2023-04-24T05:05:06;6.50;;;3.75;;
69943;SDS011;57257;48.408;-4.498;2023-04-24T05:07:32;1.00;;;1.00;;
69943;SDS011;57257;48.408;-4.498;2023-04-24T05:09:57;7.75;;;6.00;;
69943;SDS011;57257;48.408;-4.498;2023-04-24T05:12:23;7.75;;;3.25;;
69943;SDS011;57257;48.408;-4.498;2023-04-24T05:14:49;2.75;;;2.75;;
69943;SDS011;57257;48.408;-4.498;2023-04-24T05:17:14;4.25;;;4.25;;
69943;SDS011;57257;48.408;-4.498;2023-04-24T05:19:40;3.75;;;3.50;;
69943;SDS011;57257;48.408;-4.498;2023-04-24T05:22:05;2.00;;;2.00;;
69943;SDS011;57257;48.408;-4.498;2023-04-24T05:24:35;9.75;;;6.50;;
69943;SDS011;57257;48.408;-4.498;2023-04-24T05:27:01;4.25;;;4.25;;
69943;SDS011;57257;48.408;-4.498;2023-04-24T05:29:28;10.50;;;6.50;;
69943;SDS011;57257;48.408;-4.498;2023-04-24T05:31:55;6.25;;;4.00;;
69943;SDS011;57257;48.408;-4.498;2023-04-24T05:34:21;6.25;;;6.25;;
69943;SDS011;57257;48.408;-4.498;2023-04-24T05:36:46;1.50;;;1.50;;
69943;SDS011;57257;48.408;-4.498;2023-04-24T05:39:12;4.50;;;4.50;;
69943;SDS011;57257;48.408;-4.498;2023-04-24T05:41:37;3.75;;;3.75;;
69943;SDS011;57257;48.408;-4.498;2023-04-24T05:44:03;6.00;;;3.25;;
69943;SDS011;57257;48.408;-4.498;2023-04-24T05:46:28;3.75;;;3.75;;
69943;SDS011;57257;48.408;-4.498;2023-04-24T05:48:54;5.00;;;3.50;;
69943;SDS011;57257;48.408;-4.498;2023-04-24T05:51:19;9.50;;;3.00;;
69943;SDS011;57257;48.408;-4.498;2023-04-24T05:53:45;1.00;;;1.00;;
69943;SDS011;57257;48.408;-4.498;2023-04-24T05:56:10;0.00;;;0.00;;
69943;SDS011;57257;48.408;-4.498;2023-04-24T05:58:36;3.75;;;3.75;;
69943;SDS011;57257;48.408;-4.498;2023-04-24T06:01:02;7.00;;;3.00;;
69943;SDS011;57257;48.408;-4.498;2023-04-24T06:03:28;4.50;;;3.50;;
69943;SDS011;57257;48.408;-4.498;2023-04-24T06:05:53;1.00;;;1.00;;
69943;SDS011;57257;48.408;-4.498;2023-04-24T06:08:19;4.00;;;1.00;;
69943;SDS011;57257;48.408;-4.498;2023-04-24T06:10:45;3.00;;;3.00;;
69943;SDS011;57257;48.408;-4.498;2023-04-24T06:13:10;4.00;;;3.50;;
69943;SDS011;57257;48.408;-4.498;2023-04-24T06:15:36;1.00;;;1.00;;
69943;SDS011;57257;48.408;-4.498;2023-04-24T06:18:02;2.50;;;2.50;;
69943;SDS011;57257;48.408;-4.498;2023-04-24T06:20:28;3.00;;;3.00;;
69943;SDS011;57257;48.408;-4.498;2023-04-24T06:22:53;3.00;;;3.00;;
69943;SDS011;57257;48.408;-4.498;2023-04-24T06:25:19;6.50;;;6.00;;
69943;SDS011;57257;48.408;-4.498;2023-04-24T06:27:45;6.00;;;4.00;;
69943;SDS011;57257;48.408;-4.498;2023-04-24T06:30:11;6.50;;;4.50;;
69943;SDS011;57257;48.408;-4.498;2023-04-24T06:32:36;1.00;;;1.00;;
69943;SDS011;57257;48.408;-4.498;2023-04-24T06:35:02;4.00;;;4.00;;
69943;SDS011;57257;48.408;-4.498;2023-04-24T06:37:27;5.00;;;3.00;;
69943;SDS011;57257;48.408;-4.498;2023-04-24T06:39:53;3.50;;;3.50;;
69943;SDS011;57257;48.408;-4.498;2023-04-24T06:42:19;6.50;;;6.50;;
69943;SDS011;57257;48.408;-4.498;2023-04-24T06:44:46;4.00;;;3.00;;
69943;SDS011;57257;48.408;-4.498;2023-04-24T06:47:11;3.25;;;1.00;;
69943;SDS011;57257;48.408;-4.498;2023-04-24T06:49:38;2.00;;;2.00;;
69943;SDS011;57257;48.408;-4.498;2023-04-24T06:52:05;5.25;;;3.75;;
69943;SDS011;57257;48.408;-4.498;2023-04-24T06:54:31;3.50;;;3.50;;
69943;SDS011;57257;48.408;-4.498;2023-04-24T06:56:57;1.50;;;1.50;;
69943;SDS011;57257;48.408;-4.498;2023-04-24T06:59:24;5.25;;;2.75;;
69943;SDS011;57257;48.408;-4.498;2023-04-24T07:01:50;4.00;;;4.00;;
69943;SDS011;57257;48.408;-4.498;2023-04-24T07:04:16;2.50;;;2.50;;
69943;SDS011;57257;48.408;-4.498;2023-04-24T07:06:42;1.50;;;1.50;;
69943;SDS011;57257;48.408;-4.498;2023-04-24T07:09:07;0.00;;;0.00;;
69943;SDS011;57257;48.408;-4.498;2023-04-24T07:11:34;4.00;;;4.00;;
69943;SDS011;57257;48.408;-4.498;2023-04-24T07:14:01;3.50;;;3.50;;
69943;SDS011;57257;48.408;-4.498;2023-04-24T07:16:27;2.00;;;2.00;;
69943;SDS011;57257;48.408;-4.498;2023-04-24T07:18:53;4.75;;;1.50;;
69943;SDS011;57257;48.408;-4.498;2023-04-24T07:21:18;8.00;;;3.50;;
69943;SDS011;57257;48.408;-4.498;2023-04-24T07:23:44;1.50;;;1.50;;
69943;SDS011;57257;48.408;-4.498;2023-04-24T07:26:09;0.50;;;0.50;;
69943;SDS011;57257;48.408;-4.498;2023-04-24T07:28:35;6.00;;;3.75;;
69943;SDS011;57257;48.408;-4.498;2023-04-24T07:31:00;3.00;;;3.00;;
69943;SDS011;57257;48.408;-4.498;2023-04-24T07:33:26;4.25;;;3.50;;
69943;SDS011;57257;48.408;-4.498;2023-04-24T07:35:52;2.00;;;2.00;;
69943;SDS011;57257;48.408;-4.498;2023-04-24T07:38:17;3.75;;;1.00;;
69943;SDS011;57257;48.408;-4.498;2023-04-24T07:40:46;6.75;;;5.00;;
69943;SDS011;57257;48.408;-4.498;2023-04-24T07:43:12;3.00;;;3.00;;
69943;SDS011;57257;48.408;-4.498;2023-04-24T07:45:38;7.50;;;3.25;;
69943;SDS011;57257;48.408;-4.498;2023-04-24T07:48:04;1.00;;;1.00;;
69943;SDS011;57257;48.408;-4.498;2023-04-24T07:50:30;1.00;;;1.00;;
69943;SDS011;57257;48.408;-4.498;2023-04-24T07:52:55;3.75;;;1.00;;
69943;SDS011;57257;48.408;-4.498;2023-04-24T07:55:21;2.00;;;1.50;;
69943;SDS011;57257;48.408;-4.498;2023-04-24T07:57:46;3.00;;;3.00;;
69943;SDS011;57257;48.408;-4.498;2023-04-24T08:00:12;4.00;;;2.50;;
69943;SDS011;57257;48.408;-4.498;2023-04-24T08:02:38;3.25;;;1.00;;
69943;SDS011;57257;48.408;-4.498;2023-04-24T08:05:04;3.00;;;3.00;;
69943;SDS011;57257;48.408;-4.498;2023-04-24T08:07:31;4.00;;;3.00;;
69943;SDS011;57257;48.408;-4.498;2023-04-24T08:09:56;1.00;;;1.00;;
69943;SDS011;57257;48.408;-4.498;2023-04-24T08:12:22;3.75;;;3.00;;
69943;SDS011;57257;48.408;-4.498;2023-04-24T08:14:47;1.00;;;1.00;;
69943;SDS011;57257;48.408;-4.498;2023-04-24T08:17:13;3.00;;;1.00;;
69943;SDS011;57257;48.408;-4.498;2023-04-24T08:19:39;1.50;;;1.50;;
69943;SDS011;57257;48.408;-4.498;2023-04-24T08:22:08;3.00;;;1.00;;
69943;SDS011;57257;48.408;-4.498;2023-04-24T08:24:33;1.50;;;0.25;;
69943;SDS011;57257;48.408;-4.498;2023-04-24T08:26:58;4.75;;;3.00;;
69943;SDS011;57257;48.408;-4.498;2023-04-24T08:29:24;0.25;;;0.25;;
69943;SDS011;57257;48.408;-4.498;2023-04-24T08:31:50;1.75;;;1.00;;
69943;SDS011;57257;48.408;-4.498;2023-04-24T08:34:15;0.25;;;0.25;;
69943;SDS011;57257;48.408;-4.498;2023-04-24T08:36:40;3.25;;;1.00;;
69943;SDS011;57257;48.408;-4.498;2023-04-24T08:39:06;1.00;;;1.00;;
69943;SDS011;57257;48.408;-4.498;2023-04-24T08:41:33;2.00;;;1.00;;
69943;SDS011;57257;48.408;-4.498;2023-04-24T08:43:59;1.00;;;1.00;;
69943;SDS011;57257;48.408;-4.498;2023-04-24T08:46:27;2.75;;;1.00;;
69943;SDS011;57257;48.408;-4.498;2023-04-24T08:48:54;2.25;;;0.00;;
69943;SDS011;57257;48.408;-4.498;2023-04-24T08:51:19;1.00;;;0.00;;
69943;SDS011;57257;48.408;-4.498;2023-04-24T08:53:45;3.50;;;3.50;;
69943;SDS011;57257;48.408;-4.498;2023-04-24T08:56:11;0.50;;;0.50;;
69943;SDS011;57257;48.408;-4.498;2023-04-24T08:58:38;3.50;;;2.00;;
69943;SDS011;57257;48.408;-4.498;2023-04-24T09:01:04;1.00;;;1.00;;
69943;SDS011;57257;48.408;-4.498;2023-04-24T09:03:30;1.00;;;1.00;;
69943;SDS011;57257;48.408;-4.498;2023-04-24T09:05:56;4.50;;;3.25;;
69943;SDS011;57257;48.408;-4.498;2023-04-24T09:08:24;3.00;;;1.00;;
69943;SDS011;57257;48.408;-4.498;2023-04-24T09:10:50;1.00;;;0.75;;
69943;SDS011;57257;48.408;-4.498;2023-04-24T09:13:16;1.00;;;1.00;;
69943;SDS011;57257;48.408;-4.498;2023-04-24T09:15:44;3.50;;;2.00;;
69943;SDS011;57257;48.408;-4.498;2023-04-24T09:18:09;1.00;;;1.00;;
69943;SDS011;57257;48.408;-4.498;2023-04-24T09:20:35;1.00;;;0.75;;
69943;SDS011;57257;48.408;-4.498;2023-04-24T09:23:27;1.50;;;1.00;;
69943;SDS011;57257;48.408;-4.498;2023-04-24T09:25:57;3.00;;;1.00;;
69943;SDS011;57257;48.408;-4.498;2023-04-24T09:28:35;3.00;;;0.00;;
69943;SDS011;57257;48.408;-4.498;2023-04-24T09:31:06;3.00;;;1.00;;
69943;SDS011;57257;48.408;-4.498;2023-04-24T09:33:33;0.00;;;0.00;;
69943;SDS011;57257;48.408;-4.498;2023-04-24T09:35:58;1.00;;;1.00;;
69943;SDS011;57257;48.408;-4.498;2023-04-24T09:38:58;1.00;;;0.25;;
69943;SDS011;57257;48.408;-4.498;2023-04-24T09:41:18;4.00;;;3.00;;
69943;SDS011;57257;48.408;-4.498;2023-04-24T09:43:44;2.50;;;2.50;;
69943;SDS011;57257;48.408;-4.498;2023-04-24T09:46:10;3.25;;;0.75;;
69943;SDS011;57257;48.408;-4.498;2023-04-24T09:48:36;3.25;;;1.00;;
69943;SDS011;57257;48.408;-4.498;2023-04-24T09:51:03;1.00;;;1.00;;
69943;SDS011;57257;48.408;-4.498;2023-04-24T09:53:31;2.00;;;0.00;;
69943;SDS011;57257;48.408;-4.498;2023-04-24T09:56:06;1.00;;;1.00;;
69943;SDS011;57257;48.408;-4.498;2023-04-24T09:58:34;1.00;;;1.00;;
69943;SDS011;57257;48.408;-4.498;2023-04-24T10:01:00;2.00;;;0.25;;
69943;SDS011;57257;48.408;-4.498;2023-04-24T10:03:26;0.75;;;0.75;;
69943;SDS011;57257;48.408;-4.498;2023-04-24T10:05:58;1.00;;;1.00;;
69943;SDS011;57257;48.408;-4.498;2023-04-24T10:08:24;2.25;;;0.25;;
69943;SDS011;57257;48.408;-4.498;2023-04-24T10:10:51;1.00;;;1.00;;
69943;SDS011;57257;48.408;-4.498;2023-04-24T10:13:17;3.00;;;0.00;;
69943;SDS011;57257;48.408;-4.498;2023-04-24T10:15:43;1.00;;;0.00;;
69943;SDS011;57257;48.408;-4.498;2023-04-24T10:18:09;1.00;;;1.00;;
69943;SDS011;57257;48.408;-4.498;2023-04-24T10:20:37;1.00;;;1.00;;
69943;SDS011;57257;48.408;-4.498;2023-04-24T10:23:03;0.00;;;0.00;;
69943;SDS011;57257;48.408;-4.498;2023-04-24T10:25:30;0.50;;;0.50;;
69943;SDS011;57257;48.408;-4.498;2023-04-24T10:27:57;0.00;;;0.00;;
69943;SDS011;57257;48.408;-4.498;2023-04-24T10:30:24;1.00;;;1.00;;
69943;SDS011;57257;48.408;-4.498;2023-04-24T10:32:51;0.25;;;0.25;;
69943;SDS011;57257;48.408;-4.498;2023-04-24T10:35:17;1.00;;;1.00;;
69943;SDS011;57257;48.408;-4.498;2023-04-24T10:38:01;2.50;;;1.00;;
69943;SDS011;57257;48.408;-4.498;2023-04-24T10:40:31;2.00;;;1.00;;
69943;SDS011;57257;48.408;-4.498;2023-04-24T10:42:59;1.00;;;1.00;;
69943;SDS011;57257;48.408;-4.498;2023-04-24T10:45:27;1.00;;;1.00;;
69943;SDS011;57257;48.408;-4.498;2023-04-24T10:47:56;1.25;;;1.25;;
69943;SDS011;57257;48.408;-4.498;2023-04-24T10:50:27;4.25;;;3.00;;
69943;SDS011;57257;48.408;-4.498;2023-04-24T10:52:55;1.50;;;1.00;;
69943;SDS011;57257;48.408;-4.498;2023-04-24T10:56:16;2.00;;;0.50;;
69943;SDS011;57257;48.408;-4.498;2023-04-24T11:01:44;1.00;;;1.00;;
69943;SDS011;57257;48.408;-4.498;2023-04-24T11:04:03;1.00;;;1.00;;
69943;SDS011;57257;48.408;-4.498;2023-04-24T11:06:29;0.00;;;0.00;;
69943;SDS011;57257;48.408;-4.498;2023-04-24T11:09:06;1.00;;;1.00;;
69943;SDS011;57257;48.408;-4.498;2023-04-24T11:11:35;2.00;;;1.00;;
69943;SDS011;57257;48.408;-4.498;2023-04-24T11:14:06;2.50;;;0.00;;
69943;SDS011;57257;48.408;-4.498;2023-04-24T11:16:34;1.00;;;1.00;;
69943;SDS011;57257;48.408;-4.498;2023-04-24T11:19:21;0.00;;;0.00;;
69943;SDS011;57257;48.408;-4.498;2023-04-24T11:24:29;1.00;;;1.00;;
69943;SDS011;57257;48.408;-4.498;2023-04-24T11:35:21;1.50;;;0.00;;
69943;SDS011;57257;48.408;-4.498;2023-04-24T11:37:50;0.75;;;0.75;;
69943;SDS011;57257;48.408;-4.498;2023-04-24T11:40:18;3.50;;;1.00;;
69943;SDS011;57257;48.408;-4.498;2023-04-24T11:42:51;0.75;;;0.00;;
69943;SDS011;57257;48.408;-4.498;2023-04-24T11:45:24;0.50;;;0.50;;
69943;SDS011;57257;48.408;-4.498;2023-04-24T11:47:51;0.75;;;0.75;;
69943;SDS011;57257;48.408;-4.498;2023-04-24T11:50:17;5.50;;;1.50;;
69943;SDS011;57257;48.408;-4.498;2023-04-24T11:52:45;1.00;;;1.00;;
69943;SDS011;57257;48.408;-4.498;2023-04-24T11:57:43;3.25;;;0.75;;
69943;SDS011;57257;48.408;-4.498;2023-04-24T12:00:17;1.00;;;1.00;;
69943;SDS011;57257;48.408;-4.498;2023-04-24T12:02:44;1.00;;;1.00;;
69943;SDS011;57257;48.408;-4.498;2023-04-24T12:05:26;0.00;;;0.00;;
69943;SDS011;57257;48.408;-4.498;2023-04-24T12:07:52;2.00;;;0.25;;
69943;SDS011;57257;48.408;-4.498;2023-04-24T12:10:25;0.50;;;0.00;;
69943;SDS011;57257;48.408;-4.498;2023-04-24T12:12:52;0.00;;;0.00;;
69943;SDS011;57257;48.408;-4.498;2023-04-24T12:15:21;3.00;;;3.00;;
69943;SDS011;57257;48.408;-4.498;2023-04-24T12:17:47;4.00;;;1.00;;
69943;SDS011;57257;48.408;-4.498;2023-04-24T12:20:16;1.00;;;1.00;;
69943;SDS011;57257;48.408;-4.498;2023-04-24T12:22:54;2.25;;;1.00;;
69943;SDS011;57257;48.408;-4.498;2023-04-24T12:25:22;1.00;;;1.00;;
69943;SDS011;57257;48.408;-4.498;2023-04-24T12:27:52;1.00;;;1.00;;
69943;SDS011;57257;48.408;-4.498;2023-04-24T12:30:20;1.00;;;1.00;;
69943;SDS011;57257;48.408;-4.498;2023-04-24T12:32:46;0.00;;;0.00;;
69943;SDS011;57257;48.408;-4.498;2023-04-24T12:35:13;0.00;;;0.00;;
69943;SDS011;57257;48.408;-4.498;2023-04-24T12:37:44;1.50;;;1.00;;
69943;SDS011;57257;48.408;-4.498;2023-04-24T12:40:10;3.00;;;1.00;;
69943;SDS011;57257;48.408;-4.498;2023-04-24T12:42:47;3.75;;;1.00;;
69943;SDS011;57257;48.408;-4.498;2023-04-24T12:45:14;1.00;;;1.00;;
69943;SDS011;57257;48.408;-4.498;2023-04-24T12:47:41;0.75;;;0.75;;
69943;SDS011;57257;48.408;-4.498;2023-04-24T12:50:08;1.00;;;1.00;;
69943;SDS011;57257;48.408;-4.498;2023-04-24T12:52:34;1.50;;;0.00;;
69943;SDS011;57257;48.408;-4.498;2023-04-24T12:55:00;6.00;;;1.00;;
69943;SDS011;57257;48.408;-4.498;2023-04-24T12:57:27;2.00;;;2.00;;
69943;SDS011;57257;48.408;-4.498;2023-04-24T12:59:54;1.00;;;1.00;;
69943;SDS011;57257;48.408;-4.498;2023-04-24T13:02:21;1.00;;;1.00;;
69943;SDS011;57257;48.408;-4.498;2023-04-24T13:04:47;0.25;;;0.25;;
69943;SDS011;57257;48.408;-4.498;2023-04-24T13:07:13;4.00;;;1.00;;
69943;SDS011;57257;48.408;-4.498;2023-04-24T13:09:39;0.25;;;0.25;;
69943;SDS011;57257;48.408;-4.498;2023-04-24T13:12:06;3.25;;;0.25;;
69943;SDS011;57257;48.408;-4.498;2023-04-24T13:14:32;1.00;;;1.00;;
69943;SDS011;57257;48.408;-4.498;2023-04-24T13:16:57;0.00;;;0.00;;
69943;SDS011;57257;48.408;-4.498;2023-04-24T13:19:24;0.25;;;0.00;;
69943;SDS011;57257;48.408;-4.498;2023-04-24T13:21:56;1.00;;;1.00;;
69943;SDS011;57257;48.408;-4.498;2023-04-24T13:24:25;0.00;;;0.00;;
69943;SDS011;57257;48.408;-4.498;2023-04-24T13:26:51;0.00;;;0.00;;
69943;SDS011;57257;48.408;-4.498;2023-04-24T13:29:17;1.00;;;1.00;;
69943;SDS011;57257;48.408;-4.498;2023-04-24T13:31:42;0.00;;;0.00;;
69943;SDS011;57257;48.408;-4.498;2023-04-24T13:34:08;0.00;;;0.00;;
69943;SDS011;57257;48.408;-4.498;2023-04-24T13:36:33;2.00;;;0.25;;
69943;SDS011;57257;48.408;-4.498;2023-04-24T13:39:00;0.00;;;0.00;;
69943;SDS011;57257;48.408;-4.498;2023-04-24T13:41:25;0.00;;;0.00;;
69943;SDS011;57257;48.408;-4.498;2023-04-24T13:43:51;0.75;;;0.75;;
69943;SDS011;57257;48.408;-4.498;2023-04-24T13:46:16;0.00;;;0.00;;
69943;SDS011;57257;48.408;-4.498;2023-04-24T13:48:42;0.00;;;0.00;;
69943;SDS011;57257;48.408;-4.498;2023-04-24T13:51:07;0.50;;;0.50;;
69943;SDS011;57257;48.408;-4.498;2023-04-24T13:53:33;0.00;;;0.00;;
69943;SDS011;57257;48.408;-4.498;2023-04-24T13:56:01;0.00;;;0.00;;
69943;SDS011;57257;48.408;-4.498;2023-04-24T13:58:27;0.00;;;0.00;;
69943;SDS011;57257;48.408;-4.498;2023-04-24T14:00:52;0.00;;;0.00;;
69943;SDS011;57257;48.408;-4.498;2023-04-24T14:03:18;0.00;;;0.00;;
69943;SDS011;57257;48.408;-4.498;2023-04-24T14:05:43;0.00;;;0.00;;
69943;SDS011;57257;48.408;-4.498;2023-04-24T14:08:08;0.00;;;0.00;;
69943;SDS011;57257;48.408;-4.498;2023-04-24T14:10:34;1.00;;;0.00;;
69943;SDS011;57257;48.408;-4.498;2023-04-24T14:13:00;0.00;;;0.00;;
69943;SDS011;57257;48.408;-4.498;2023-04-24T14:15:25;1.50;;;0.50;;
69943;SDS011;57257;48.408;-4.498;2023-04-24T14:17:51;1.00;;;1.00;;
69943;SDS011;57257;48.408;-4.498;2023-04-24T14:20:16;0.50;;;0.00;;
69943;SDS011;57257;48.408;-4.498;2023-04-24T14:22:42;0.00;;;0.00;;
69943;SDS011;57257;48.408;-4.498;2023-04-24T14:25:07;0.00;;;0.00;;
69943;SDS011;57257;48.408;-4.498;2023-04-24T14:27:33;0.75;;;0.00;;
69943;SDS011;57257;48.408;-4.498;2023-04-24T14:29:59;0.00;;;0.00;;
69943;SDS011;57257;48.408;-4.498;2023-04-24T14:32:25;0.00;;;0.00;;
69943;SDS011;57257;48.408;-4.498;2023-04-24T14:34:50;0.25;;;0.25;;
69943;SDS011;57257;48.408;-4.498;2023-04-24T14:37:16;0.00;;;0.00;;
69943;SDS011;57257;48.408;-4.498;2023-04-24T14:39:41;3.00;;;0.75;;
69943;SDS011;57257;48.408;-4.498;2023-04-24T14:42:07;0.00;;;0.00;;
69943;SDS011;57257;48.408;-4.498;2023-04-24T14:44:32;0.75;;;0.00;;
69943;SDS011;57257;48.408;-4.498;2023-04-24T14:46:58;0.00;;;0.00;;